Terminal Aerodrome Forecast
Issued by NWS

Home | Current Version | Previous Version | Text Only | Print | Product List | Glossary On
Versions: 1 2 3 4 5 6 7 8 9 10 11 12 13 14 15 16 17 18 19 20 21 22 23
000
FTUS46 KMFR 061824 AAA
TAFOTH
TAF AMD
KOTH 061824Z 0618/0718 VRB03KT P6SM BKN008
     FM062100 25010KT P6SM SCT010
     FM070000 25010KT P6SM OVC009
     FM070200 VRB03KT P6SM OVC007=

USA.gov is the U.S. government's official web portal to all federal, state and local government web resources and services.